sensor_id;sensor_type;location;lat;lon;timestamp;P1;durP1;ratioP1;P2;durP2;ratioP2
76727;SDS011;65652;53.132;18.026;2024-03-17T00:01:12;9.10;;;1.30;;
76727;SDS011;65652;53.132;18.026;2024-03-17T00:03:59;7.30;;;1.50;;
76727;SDS011;65652;53.132;18.026;2024-03-17T00:06:26;9.30;;;1.60;;
76727;SDS011;65652;53.132;18.026;2024-03-17T00:08:52;7.40;;;1.10;;
76727;SDS011;65652;53.132;18.026;2024-03-17T00:11:19;6.40;;;1.10;;
76727;SDS011;65652;53.132;18.026;2024-03-17T00:13:47;5.00;;;0.90;;
76727;SDS011;65652;53.132;18.026;2024-03-17T00:16:14;6.60;;;0.90;;
76727;SDS011;65652;53.132;18.026;2024-03-17T00:18:45;10.10;;;1.20;;
76727;SDS011;65652;53.132;18.026;2024-03-17T00:21:13;5.00;;;0.90;;
76727;SDS011;65652;53.132;18.026;2024-03-17T00:23:40;10.10;;;1.20;;
76727;SDS011;65652;53.132;18.026;2024-03-17T00:26:06;6.00;;;1.30;;
76727;SDS011;65652;53.132;18.026;2024-03-17T00:28:33;9.40;;;1.20;;
76727;SDS011;65652;53.132;18.026;2024-03-17T00:31:02;7.20;;;1.20;;
76727;SDS011;65652;53.132;18.026;2024-03-17T00:33:30;10.90;;;1.50;;
76727;SDS011;65652;53.132;18.026;2024-03-17T00:35:58;10.00;;;1.80;;
76727;SDS011;65652;53.132;18.026;2024-03-17T00:38:25;7.00;;;1.00;;
76727;SDS011;65652;53.132;18.026;2024-03-17T00:40:52;4.60;;;1.00;;
76727;SDS011;65652;53.132;18.026;2024-03-17T00:43:19;7.40;;;1.00;;
76727;SDS011;65652;53.132;18.026;2024-03-17T00:45:52;5.80;;;1.20;;
76727;SDS011;65652;53.132;18.026;2024-03-17T00:48:19;8.00;;;1.10;;
76727;SDS011;65652;53.132;18.026;2024-03-17T00:50:47;10.30;;;1.40;;
76727;SDS011;65652;53.132;18.026;2024-03-17T00:53:21;7.40;;;1.20;;
76727;SDS011;65652;53.132;18.026;2024-03-17T00:55:52;6.90;;;1.20;;
76727;SDS011;65652;53.132;18.026;2024-03-17T00:58:22;8.30;;;1.30;;
76727;SDS011;65652;53.132;18.026;2024-03-17T01:00:49;6.50;;;1.00;;
76727;SDS011;65652;53.132;18.026;2024-03-17T01:03:16;9.20;;;1.20;;
76727;SDS011;65652;53.132;18.026;2024-03-17T01:05:44;7.50;;;1.30;;
76727;SDS011;65652;53.132;18.026;2024-03-17T01:08:13;6.40;;;1.20;;
76727;SDS011;65652;53.132;18.026;2024-03-17T01:10:41;5.50;;;0.80;;
76727;SDS011;65652;53.132;18.026;2024-03-17T01:13:08;5.00;;;0.80;;
76727;SDS011;65652;53.132;18.026;2024-03-17T01:15:36;7.60;;;0.80;;
76727;SDS011;65652;53.132;18.026;2024-03-17T01:18:04;7.90;;;1.40;;
76727;SDS011;65652;53.132;18.026;2024-03-17T01:20:32;6.90;;;1.10;;
76727;SDS011;65652;53.132;18.026;2024-03-17T01:23:00;6.80;;;0.90;;
76727;SDS011;65652;53.132;18.026;2024-03-17T01:25:28;4.80;;;1.30;;
76727;SDS011;65652;53.132;18.026;2024-03-17T01:27:56;5.40;;;0.90;;
76727;SDS011;65652;53.132;18.026;2024-03-17T01:30:23;6.80;;;1.00;;
76727;SDS011;65652;53.132;18.026;2024-03-17T01:32:51;8.60;;;1.00;;
76727;SDS011;65652;53.132;18.026;2024-03-17T01:35:18;7.90;;;1.10;;
76727;SDS011;65652;53.132;18.026;2024-03-17T01:37:44;7.70;;;1.50;;
76727;SDS011;65652;53.132;18.026;2024-03-17T01:40:11;8.00;;;1.10;;
76727;SDS011;65652;53.132;18.026;2024-03-17T01:42:39;5.30;;;1.00;;
76727;SDS011;65652;53.132;18.026;2024-03-17T01:47:59;10.40;;;1.80;;
76727;SDS011;65652;53.132;18.026;2024-03-17T01:50:36;10.70;;;1.70;;
76727;SDS011;65652;53.132;18.026;2024-03-17T01:53:07;6.50;;;1.20;;
76727;SDS011;65652;53.132;18.026;2024-03-17T01:55:37;10.50;;;1.90;;
76727;SDS011;65652;53.132;18.026;2024-03-17T01:58:06;8.40;;;1.60;;
76727;SDS011;65652;53.132;18.026;2024-03-17T02:00:37;9.10;;;1.80;;
76727;SDS011;65652;53.132;18.026;2024-03-17T02:03:07;5.70;;;1.30;;
76727;SDS011;65652;53.132;18.026;2024-03-17T02:05:35;11.30;;;2.10;;
76727;SDS011;65652;53.132;18.026;2024-03-17T02:08:05;9.70;;;1.60;;
76727;SDS011;65652;53.132;18.026;2024-03-17T02:10:37;5.80;;;1.00;;
76727;SDS011;65652;53.132;18.026;2024-03-17T02:13:04;8.00;;;1.60;;
76727;SDS011;65652;53.132;18.026;2024-03-17T02:15:32;9.20;;;1.50;;
76727;SDS011;65652;53.132;18.026;2024-03-17T02:17:59;9.50;;;1.40;;
76727;SDS011;65652;53.132;18.026;2024-03-17T02:20:26;9.50;;;1.40;;
76727;SDS011;65652;53.132;18.026;2024-03-17T02:23:11;6.30;;;0.90;;
76727;SDS011;65652;53.132;18.026;2024-03-17T02:25:38;4.30;;;1.00;;
76727;SDS011;65652;53.132;18.026;2024-03-17T02:28:06;5.90;;;1.00;;
76727;SDS011;65652;53.132;18.026;2024-03-17T02:30:33;6.00;;;1.30;;
76727;SDS011;65652;53.132;18.026;2024-03-17T02:33:00;6.40;;;0.90;;
76727;SDS011;65652;53.132;18.026;2024-03-17T02:35:26;7.20;;;1.30;;
76727;SDS011;65652;53.132;18.026;2024-03-17T02:37:53;10.00;;;1.70;;
76727;SDS011;65652;53.132;18.026;2024-03-17T02:40:20;12.40;;;1.60;;
76727;SDS011;65652;53.132;18.026;2024-03-17T02:42:47;8.00;;;1.70;;
76727;SDS011;65652;53.132;18.026;2024-03-17T02:45:13;8.80;;;2.10;;
76727;SDS011;65652;53.132;18.026;2024-03-17T02:47:40;8.00;;;1.70;;
76727;SDS011;65652;53.132;18.026;2024-03-17T02:50:07;8.60;;;1.00;;
76727;SDS011;65652;53.132;18.026;2024-03-17T02:52:38;5.80;;;1.10;;
76727;SDS011;65652;53.132;18.026;2024-03-17T02:55:05;11.70;;;1.80;;
76727;SDS011;65652;53.132;18.026;2024-03-17T02:57:32;6.40;;;1.00;;
76727;SDS011;65652;53.132;18.026;2024-03-17T02:59:59;8.00;;;1.40;;
76727;SDS011;65652;53.132;18.026;2024-03-17T03:02:25;7.20;;;1.30;;
76727;SDS011;65652;53.132;18.026;2024-03-17T03:04:52;6.70;;;1.20;;
76727;SDS011;65652;53.132;18.026;2024-03-17T03:07:19;5.40;;;0.90;;
76727;SDS011;65652;53.132;18.026;2024-03-17T03:09:45;6.70;;;1.40;;
76727;SDS011;65652;53.132;18.026;2024-03-17T03:12:13;8.50;;;1.30;;
76727;SDS011;65652;53.132;18.026;2024-03-17T03:14:40;9.20;;;1.20;;
76727;SDS011;65652;53.132;18.026;2024-03-17T03:17:07;7.90;;;1.30;;
76727;SDS011;65652;53.132;18.026;2024-03-17T03:19:34;8.70;;;1.40;;
76727;SDS011;65652;53.132;18.026;2024-03-17T03:22:01;8.50;;;1.30;;
76727;SDS011;65652;53.132;18.026;2024-03-17T03:24:28;7.20;;;1.20;;
76727;SDS011;65652;53.132;18.026;2024-03-17T03:26:55;7.00;;;1.30;;
76727;SDS011;65652;53.132;18.026;2024-03-17T03:29:21;5.00;;;1.20;;
76727;SDS011;65652;53.132;18.026;2024-03-17T03:31:48;7.00;;;1.20;;
76727;SDS011;65652;53.132;18.026;2024-03-17T03:34:15;11.40;;;1.30;;
76727;SDS011;65652;53.132;18.026;2024-03-17T03:36:41;9.10;;;1.30;;
76727;SDS011;65652;53.132;18.026;2024-03-17T03:39:08;6.20;;;0.70;;
76727;SDS011;65652;53.132;18.026;2024-03-17T03:41:37;7.20;;;1.00;;
76727;SDS011;65652;53.132;18.026;2024-03-17T03:44:04;4.80;;;0.80;;
76727;SDS011;65652;53.132;18.026;2024-03-17T03:46:31;6.80;;;1.20;;
76727;SDS011;65652;53.132;18.026;2024-03-17T03:48:58;7.20;;;1.20;;
76727;SDS011;65652;53.132;18.026;2024-03-17T03:51:25;6.30;;;0.80;;
76727;SDS011;65652;53.132;18.026;2024-03-17T03:53:51;5.90;;;1.00;;
76727;SDS011;65652;53.132;18.026;2024-03-17T03:56:19;5.00;;;1.00;;
76727;SDS011;65652;53.132;18.026;2024-03-17T03:58:47;9.40;;;1.10;;
76727;SDS011;65652;53.132;18.026;2024-03-17T04:01:13;7.90;;;1.10;;
76727;SDS011;65652;53.132;18.026;2024-03-17T04:03:48;6.10;;;1.10;;
76727;SDS011;65652;53.132;18.026;2024-03-17T04:06:16;5.30;;;0.90;;
76727;SDS011;65652;53.132;18.026;2024-03-17T04:08:43;6.20;;;1.30;;
76727;SDS011;65652;53.132;18.026;2024-03-17T04:11:10;9.30;;;1.30;;
76727;SDS011;65652;53.132;18.026;2024-03-17T04:13:37;6.80;;;0.90;;
76727;SDS011;65652;53.132;18.026;2024-03-17T04:16:05;2.00;;;0.50;;
76727;SDS011;65652;53.132;18.026;2024-03-17T04:18:33;7.90;;;1.30;;
76727;SDS011;65652;53.132;18.026;2024-03-17T04:21:05;6.20;;;1.10;;
76727;SDS011;65652;53.132;18.026;2024-03-17T04:23:35;7.60;;;1.40;;
76727;SDS011;65652;53.132;18.026;2024-03-17T04:26:02;5.20;;;0.70;;
76727;SDS011;65652;53.132;18.026;2024-03-17T04:28:30;4.70;;;0.90;;
76727;SDS011;65652;53.132;18.026;2024-03-17T04:31:03;4.70;;;1.10;;
76727;SDS011;65652;53.132;18.026;2024-03-17T04:33:34;7.10;;;1.30;;
76727;SDS011;65652;53.132;18.026;2024-03-17T04:36:02;4.50;;;0.80;;
76727;SDS011;65652;53.132;18.026;2024-03-17T04:38:29;6.20;;;1.70;;
76727;SDS011;65652;53.132;18.026;2024-03-17T04:40:56;8.30;;;1.80;;
76727;SDS011;65652;53.132;18.026;2024-03-17T04:43:31;4.40;;;1.00;;
76727;SDS011;65652;53.132;18.026;2024-03-17T04:45:59;5.20;;;1.20;;
76727;SDS011;65652;53.132;18.026;2024-03-17T04:48:27;5.60;;;1.20;;
76727;SDS011;65652;53.132;18.026;2024-03-17T04:50:53;6.90;;;1.30;;
76727;SDS011;65652;53.132;18.026;2024-03-17T04:53:20;5.60;;;1.30;;
76727;SDS011;65652;53.132;18.026;2024-03-17T04:55:47;3.70;;;0.90;;
76727;SDS011;65652;53.132;18.026;2024-03-17T04:58:27;4.20;;;1.50;;
76727;SDS011;65652;53.132;18.026;2024-03-17T05:00:54;6.80;;;1.30;;
76727;SDS011;65652;53.132;18.026;2024-03-17T05:03:20;3.80;;;0.80;;
76727;SDS011;65652;53.132;18.026;2024-03-17T05:05:47;5.10;;;1.20;;
76727;SDS011;65652;53.132;18.026;2024-03-17T05:08:14;6.60;;;1.60;;
76727;SDS011;65652;53.132;18.026;2024-03-17T05:10:40;5.30;;;1.10;;
76727;SDS011;65652;53.132;18.026;2024-03-17T05:13:07;4.60;;;1.10;;
76727;SDS011;65652;53.132;18.026;2024-03-17T05:15:36;4.20;;;1.20;;
76727;SDS011;65652;53.132;18.026;2024-03-17T05:18:03;3.60;;;0.80;;
76727;SDS011;65652;53.132;18.026;2024-03-17T05:20:31;6.20;;;0.90;;
76727;SDS011;65652;53.132;18.026;2024-03-17T05:22:57;6.00;;;0.70;;
76727;SDS011;65652;53.132;18.026;2024-03-17T05:25:24;4.30;;;0.90;;
76727;SDS011;65652;53.132;18.026;2024-03-17T05:27:51;4.20;;;0.70;;
76727;SDS011;65652;53.132;18.026;2024-03-17T05:30:17;3.80;;;0.70;;
76727;SDS011;65652;53.132;18.026;2024-03-17T05:32:44;3.70;;;0.50;;
76727;SDS011;65652;53.132;18.026;2024-03-17T05:35:11;3.20;;;0.60;;
76727;SDS011;65652;53.132;18.026;2024-03-17T05:37:39;4.20;;;0.80;;
76727;SDS011;65652;53.132;18.026;2024-03-17T05:40:09;3.80;;;0.70;;
76727;SDS011;65652;53.132;18.026;2024-03-17T05:42:41;4.30;;;0.80;;
76727;SDS011;65652;53.132;18.026;2024-03-17T05:45:09;3.40;;;0.60;;
76727;SDS011;65652;53.132;18.026;2024-03-17T05:47:37;2.70;;;0.40;;
76727;SDS011;65652;53.132;18.026;2024-03-17T05:50:05;5.10;;;0.90;;
76727;SDS011;65652;53.132;18.026;2024-03-17T05:52:32;2.90;;;0.70;;
76727;SDS011;65652;53.132;18.026;2024-03-17T05:54:58;3.00;;;0.80;;
76727;SDS011;65652;53.132;18.026;2024-03-17T05:57:25;2.30;;;0.50;;
76727;SDS011;65652;53.132;18.026;2024-03-17T05:59:52;2.80;;;0.50;;
76727;SDS011;65652;53.132;18.026;2024-03-17T06:02:19;3.90;;;0.60;;
76727;SDS011;65652;53.132;18.026;2024-03-17T06:04:45;5.00;;;0.70;;
76727;SDS011;65652;53.132;18.026;2024-03-17T06:07:12;2.50;;;0.90;;
76727;SDS011;65652;53.132;18.026;2024-03-17T06:09:39;3.60;;;0.60;;
76727;SDS011;65652;53.132;18.026;2024-03-17T06:12:06;4.00;;;0.50;;
76727;SDS011;65652;53.132;18.026;2024-03-17T06:14:32;3.50;;;0.80;;
76727;SDS011;65652;53.132;18.026;2024-03-17T06:17:00;3.00;;;0.40;;
76727;SDS011;65652;53.132;18.026;2024-03-17T06:19:27;1.60;;;0.50;;
76727;SDS011;65652;53.132;18.026;2024-03-17T06:21:54;2.40;;;0.50;;
76727;SDS011;65652;53.132;18.026;2024-03-17T06:24:20;3.30;;;0.70;;
76727;SDS011;65652;53.132;18.026;2024-03-17T06:26:47;3.70;;;0.70;;
76727;SDS011;65652;53.132;18.026;2024-03-17T06:29:17;3.60;;;0.60;;
76727;SDS011;65652;53.132;18.026;2024-03-17T06:31:45;3.60;;;0.60;;
76727;SDS011;65652;53.132;18.026;2024-03-17T06:34:13;3.60;;;0.70;;
76727;SDS011;65652;53.132;18.026;2024-03-17T06:36:42;2.80;;;0.70;;
76727;SDS011;65652;53.132;18.026;2024-03-17T06:39:09;2.60;;;0.60;;
76727;SDS011;65652;53.132;18.026;2024-03-17T06:41:35;4.90;;;0.90;;
76727;SDS011;65652;53.132;18.026;2024-03-17T06:44:04;2.90;;;0.60;;
76727;SDS011;65652;53.132;18.026;2024-03-17T06:46:33;4.70;;;0.90;;
76727;SDS011;65652;53.132;18.026;2024-03-17T06:49:00;4.80;;;1.00;;
76727;SDS011;65652;53.132;18.026;2024-03-17T06:51:26;3.20;;;0.80;;
76727;SDS011;65652;53.132;18.026;2024-03-17T06:53:53;4.20;;;0.90;;
76727;SDS011;65652;53.132;18.026;2024-03-17T06:56:20;3.10;;;0.70;;
76727;SDS011;65652;53.132;18.026;2024-03-17T06:58:47;2.80;;;0.70;;
76727;SDS011;65652;53.132;18.026;2024-03-17T07:01:13;5.00;;;0.90;;
76727;SDS011;65652;53.132;18.026;2024-03-17T07:03:40;4.90;;;1.10;;
76727;SDS011;65652;53.132;18.026;2024-03-17T07:06:07;4.10;;;0.90;;
76727;SDS011;65652;53.132;18.026;2024-03-17T07:08:34;4.20;;;1.10;;
76727;SDS011;65652;53.132;18.026;2024-03-17T07:11:05;3.30;;;0.80;;
76727;SDS011;65652;53.132;18.026;2024-03-17T07:13:34;3.30;;;0.70;;
76727;SDS011;65652;53.132;18.026;2024-03-17T07:16:08;4.40;;;0.80;;
76727;SDS011;65652;53.132;18.026;2024-03-17T07:18:36;3.00;;;0.80;;
76727;SDS011;65652;53.132;18.026;2024-03-17T07:21:03;5.00;;;0.80;;
76727;SDS011;65652;53.132;18.026;2024-03-17T07:23:31;3.10;;;1.00;;
76727;SDS011;65652;53.132;18.026;2024-03-17T07:25:59;4.20;;;0.70;;
76727;SDS011;65652;53.132;18.026;2024-03-17T07:30:55;4.10;;;1.00;;
76727;SDS011;65652;53.132;18.026;2024-03-17T07:33:25;3.40;;;0.90;;
76727;SDS011;65652;53.132;18.026;2024-03-17T07:35:53;4.10;;;0.80;;
76727;SDS011;65652;53.132;18.026;2024-03-17T07:38:23;5.50;;;1.20;;
76727;SDS011;65652;53.132;18.026;2024-03-17T07:41:01;4.20;;;1.20;;
76727;SDS011;65652;53.132;18.026;2024-03-17T07:43:30;5.60;;;1.60;;
76727;SDS011;65652;53.132;18.026;2024-03-17T07:48:27;6.00;;;1.60;;
76727;SDS011;65652;53.132;18.026;2024-03-17T07:53:27;3.80;;;0.90;;
76727;SDS011;65652;53.132;18.026;2024-03-17T07:56:01;4.70;;;1.50;;
76727;SDS011;65652;53.132;18.026;2024-03-17T07:58:38;4.00;;;1.10;;
76727;SDS011;65652;53.132;18.026;2024-03-17T08:01:07;3.60;;;1.00;;
76727;SDS011;65652;53.132;18.026;2024-03-17T08:03:39;4.10;;;1.00;;
76727;SDS011;65652;53.132;18.026;2024-03-17T08:06:07;4.30;;;0.90;;
76727;SDS011;65652;53.132;18.026;2024-03-17T08:08:35;5.20;;;1.00;;
76727;SDS011;65652;53.132;18.026;2024-03-17T08:11:02;3.00;;;0.80;;
76727;SDS011;65652;53.132;18.026;2024-03-17T08:13:30;4.30;;;1.10;;
76727;SDS011;65652;53.132;18.026;2024-03-17T08:16:02;4.50;;;1.30;;
76727;SDS011;65652;53.132;18.026;2024-03-17T08:18:32;4.00;;;1.30;;
76727;SDS011;65652;53.132;18.026;2024-03-17T08:21:00;8.90;;;2.20;;
76727;SDS011;65652;53.132;18.026;2024-03-17T08:23:28;6.70;;;1.40;;
76727;SDS011;65652;53.132;18.026;2024-03-17T08:25:55;6.60;;;2.10;;
76727;SDS011;65652;53.132;18.026;2024-03-17T08:30:51;3.80;;;1.10;;
76727;SDS011;65652;53.132;18.026;2024-03-17T08:33:22;3.00;;;0.70;;
76727;SDS011;65652;53.132;18.026;2024-03-17T08:35:56;3.30;;;0.60;;
76727;SDS011;65652;53.132;18.026;2024-03-17T08:38:28;2.10;;;0.50;;
76727;SDS011;65652;53.132;18.026;2024-03-17T08:43:23;1.30;;;0.30;;
76727;SDS011;65652;53.132;18.026;2024-03-17T08:46:00;2.30;;;0.50;;
76727;SDS011;65652;53.132;18.026;2024-03-17T08:48:36;3.90;;;1.20;;
76727;SDS011;65652;53.132;18.026;2024-03-17T08:51:05;3.80;;;1.10;;
76727;SDS011;65652;53.132;18.026;2024-03-17T08:53:33;4.20;;;1.10;;
76727;SDS011;65652;53.132;18.026;2024-03-17T08:56:00;4.50;;;1.30;;
76727;SDS011;65652;53.132;18.026;2024-03-17T08:58:29;5.10;;;1.60;;
76727;SDS011;65652;53.132;18.026;2024-03-17T09:00:56;5.70;;;1.60;;
76727;SDS011;65652;53.132;18.026;2024-03-17T09:03:23;5.50;;;1.50;;
76727;SDS011;65652;53.132;18.026;2024-03-17T09:05:52;3.40;;;1.00;;
76727;SDS011;65652;53.132;18.026;2024-03-17T09:08:21;5.00;;;1.00;;
76727;SDS011;65652;53.132;18.026;2024-03-17T09:10:51;2.50;;;0.70;;
76727;SDS011;65652;53.132;18.026;2024-03-17T09:13:20;3.20;;;1.00;;
76727;SDS011;65652;53.132;18.026;2024-03-17T09:15:54;4.60;;;1.10;;
76727;SDS011;65652;53.132;18.026;2024-03-17T09:18:23;4.60;;;0.90;;
76727;SDS011;65652;53.132;18.026;2024-03-17T09:23:24;5.10;;;1.70;;
76727;SDS011;65652;53.132;18.026;2024-03-17T09:26:25;5.30;;;1.10;;
76727;SDS011;65652;53.132;18.026;2024-03-17T09:28:44;3.10;;;0.90;;
76727;SDS011;65652;53.132;18.026;2024-03-17T09:31:12;3.10;;;0.80;;
76727;SDS011;65652;53.132;18.026;2024-03-17T09:33:39;2.70;;;0.70;;
76727;SDS011;65652;53.132;18.026;2024-03-17T09:36:06;3.00;;;0.70;;
76727;SDS011;65652;53.132;18.026;2024-03-17T09:38:34;1.80;;;0.40;;
76727;SDS011;65652;53.132;18.026;2024-03-17T09:41:02;2.80;;;0.60;;
76727;SDS011;65652;53.132;18.026;2024-03-17T09:43:33;3.20;;;0.70;;
76727;SDS011;65652;53.132;18.026;2024-03-17T09:46:05;3.50;;;0.90;;
76727;SDS011;65652;53.132;18.026;2024-03-17T09:48:32;4.20;;;1.00;;
76727;SDS011;65652;53.132;18.026;2024-03-17T09:51:00;1.80;;;0.50;;
76727;SDS011;65652;53.132;18.026;2024-03-17T09:53:31;2.90;;;0.80;;
76727;SDS011;65652;53.132;18.026;2024-03-17T09:56:14;2.30;;;0.40;;
76727;SDS011;65652;53.132;18.026;2024-03-17T09:58:42;1.30;;;0.30;;
76727;SDS011;65652;53.132;18.026;2024-03-17T10:01:09;2.00;;;0.50;;
76727;SDS011;65652;53.132;18.026;2024-03-17T10:06:21;1.80;;;0.40;;
76727;SDS011;65652;53.132;18.026;2024-03-17T10:08:50;4.10;;;0.80;;
76727;SDS011;65652;53.132;18.026;2024-03-17T10:13:46;4.20;;;1.50;;
76727;SDS011;65652;53.132;18.026;2024-03-17T10:16:25;5.30;;;1.40;;
76727;SDS011;65652;53.132;18.026;2024-03-17T10:19:05;4.30;;;1.10;;
76727;SDS011;65652;53.132;18.026;2024-03-17T10:21:34;5.30;;;1.20;;
76727;SDS011;65652;53.132;18.026;2024-03-17T10:24:07;3.00;;;0.90;;
76727;SDS011;65652;53.132;18.026;2024-03-17T10:26:55;3.40;;;0.90;;
76727;SDS011;65652;53.132;18.026;2024-03-17T10:31:57;2.80;;;0.60;;
76727;SDS011;65652;53.132;18.026;2024-03-17T10:34:26;1.90;;;0.50;;
76727;SDS011;65652;53.132;18.026;2024-03-17T10:39:38;2.30;;;0.60;;
76727;SDS011;65652;53.132;18.026;2024-03-17T10:42:06;2.10;;;0.50;;
76727;SDS011;65652;53.132;18.026;2024-03-17T10:44:35;3.50;;;0.70;;
76727;SDS011;65652;53.132;18.026;2024-03-17T10:47:04;2.60;;;0.50;;
76727;SDS011;65652;53.132;18.026;2024-03-17T10:49:38;1.80;;;0.50;;
76727;SDS011;65652;53.132;18.026;2024-03-17T10:52:06;3.50;;;0.50;;
76727;SDS011;65652;53.132;18.026;2024-03-17T10:54:46;2.20;;;0.50;;
76727;SDS011;65652;53.132;18.026;2024-03-17T10:59:59;2.80;;;0.50;;
76727;SDS011;65652;53.132;18.026;2024-03-17T11:02:30;3.60;;;0.50;;
76727;SDS011;65652;53.132;18.026;2024-03-17T11:05:00;3.00;;;0.60;;
76727;SDS011;65652;53.132;18.026;2024-03-17T11:07:46;2.50;;;0.60;;
76727;SDS011;65652;53.132;18.026;2024-03-17T11:10:29;3.40;;;0.80;;
76727;SDS011;65652;53.132;18.026;2024-03-17T11:13:00;3.90;;;1.10;;
76727;SDS011;65652;53.132;18.026;2024-03-17T11:20:34;3.50;;;0.70;;
76727;SDS011;65652;53.132;18.026;2024-03-17T11:23:08;4.70;;;1.40;;
76727;SDS011;65652;53.132;18.026;2024-03-17T11:28:04;1.60;;;0.40;;
76727;SDS011;65652;53.132;18.026;2024-03-17T11:38:53;4.50;;;1.00;;
76727;SDS011;65652;53.132;18.026;2024-03-17T11:41:43;2.90;;;0.60;;
76727;SDS011;65652;53.132;18.026;2024-03-17T11:46:50;2.30;;;0.40;;
76727;SDS011;65652;53.132;18.026;2024-03-17T11:49:21;2.30;;;0.60;;
76727;SDS011;65652;53.132;18.026;2024-03-17T11:51:50;2.70;;;0.70;;
76727;SDS011;65652;53.132;18.026;2024-03-17T11:54:20;2.60;;;0.70;;
76727;SDS011;65652;53.132;18.026;2024-03-17T11:56:54;3.60;;;1.00;;
76727;SDS011;65652;53.132;18.026;2024-03-17T11:59:28;3.20;;;0.60;;
76727;SDS011;65652;53.132;18.026;2024-03-17T12:01:56;3.30;;;0.70;;
76727;SDS011;65652;53.132;18.026;2024-03-17T12:04:23;5.40;;;1.20;;
76727;SDS011;65652;53.132;18.026;2024-03-17T12:12:01;3.00;;;0.90;;
76727;SDS011;65652;53.132;18.026;2024-03-17T12:14:35;2.10;;;0.50;;
76727;SDS011;65652;53.132;18.026;2024-03-17T12:17:04;1.70;;;0.40;;
76727;SDS011;65652;53.132;18.026;2024-03-17T12:19:31;5.80;;;1.60;;
76727;SDS011;65652;53.132;18.026;2024-03-17T12:21:58;3.30;;;0.70;;
76727;SDS011;65652;53.132;18.026;2024-03-17T12:24:27;2.50;;;0.60;;
76727;SDS011;65652;53.132;18.026;2024-03-17T12:26:55;1.90;;;0.40;;
76727;SDS011;65652;53.132;18.026;2024-03-17T12:29:27;1.90;;;0.50;;
76727;SDS011;65652;53.132;18.026;2024-03-17T12:34:49;2.30;;;0.50;;
76727;SDS011;65652;53.132;18.026;2024-03-17T12:37:18;2.00;;;0.40;;
76727;SDS011;65652;53.132;18.026;2024-03-17T12:39:47;1.80;;;0.50;;
76727;SDS011;65652;53.132;18.026;2024-03-17T12:42:14;3.50;;;0.80;;
76727;SDS011;65652;53.132;18.026;2024-03-17T12:44:55;3.90;;;0.90;;
76727;SDS011;65652;53.132;18.026;2024-03-17T12:47:24;2.90;;;0.60;;
76727;SDS011;65652;53.132;18.026;2024-03-17T12:49:56;2.20;;;0.40;;
76727;SDS011;65652;53.132;18.026;2024-03-17T12:52:28;2.40;;;0.30;;
76727;SDS011;65652;53.132;18.026;2024-03-17T13:00:45;2.50;;;0.50;;
76727;SDS011;65652;53.132;18.026;2024-03-17T13:04:04;2.90;;;0.80;;
76727;SDS011;65652;53.132;18.026;2024-03-17T13:06:08;2.20;;;0.50;;
76727;SDS011;65652;53.132;18.026;2024-03-17T13:08:36;2.30;;;0.40;;
76727;SDS011;65652;53.132;18.026;2024-03-17T13:11:03;3.40;;;0.70;;
76727;SDS011;65652;53.132;18.026;2024-03-17T13:13:30;2.30;;;0.70;;
76727;SDS011;65652;53.132;18.026;2024-03-17T13:15:58;2.30;;;0.50;;
76727;SDS011;65652;53.132;18.026;2024-03-17T13:18:25;2.40;;;0.50;;
76727;SDS011;65652;53.132;18.026;2024-03-17T13:20:51;1.40;;;0.30;;
76727;SDS011;65652;53.132;18.026;2024-03-17T13:23:23;1.60;;;0.30;;
76727;SDS011;65652;53.132;18.026;2024-03-17T13:25:51;1.00;;;0.20;;
76727;SDS011;65652;53.132;18.026;2024-03-17T13:28:18;2.10;;;0.50;;
76727;SDS011;65652;53.132;18.026;2024-03-17T13:30:44;3.20;;;0.60;;
76727;SDS011;65652;53.132;18.026;2024-03-17T13:33:13;1.90;;;0.40;;
76727;SDS011;65652;53.132;18.026;2024-03-17T13:35:40;2.80;;;0.70;;
76727;SDS011;65652;53.132;18.026;2024-03-17T13:38:08;3.70;;;0.90;;
76727;SDS011;65652;53.132;18.026;2024-03-17T13:40:39;2.90;;;0.60;;
76727;SDS011;65652;53.132;18.026;2024-03-17T13:45:41;1.50;;;0.30;;
76727;SDS011;65652;53.132;18.026;2024-03-17T13:48:14;3.20;;;0.70;;
76727;SDS011;65652;53.132;18.026;2024-03-17T13:50:40;2.60;;;0.60;;
76727;SDS011;65652;53.132;18.026;2024-03-17T13:53:11;2.10;;;0.50;;
76727;SDS011;65652;53.132;18.026;2024-03-17T13:55:38;3.40;;;0.60;;
76727;SDS011;65652;53.132;18.026;2024-03-17T13:58:04;3.20;;;0.70;;
76727;SDS011;65652;53.132;18.026;2024-03-17T14:00:32;1.30;;;0.30;;
76727;SDS011;65652;53.132;18.026;2024-03-17T14:03:04;1.70;;;0.30;;
76727;SDS011;65652;53.132;18.026;2024-03-17T14:05:32;2.20;;;0.70;;
76727;SDS011;65652;53.132;18.026;2024-03-17T14:08:02;1.90;;;0.50;;
76727;SDS011;65652;53.132;18.026;2024-03-17T14:10:31;2.90;;;0.30;;
76727;SDS011;65652;53.132;18.026;2024-03-17T14:12:57;3.10;;;0.60;;
76727;SDS011;65652;53.132;18.026;2024-03-17T14:15:24;1.40;;;0.40;;
76727;SDS011;65652;53.132;18.026;2024-03-17T14:17:51;3.00;;;0.60;;
76727;SDS011;65652;53.132;18.026;2024-03-17T14:20:18;2.40;;;0.60;;
76727;SDS011;65652;53.132;18.026;2024-03-17T14:22:46;7.30;;;1.90;;
76727;SDS011;65652;53.132;18.026;2024-03-17T14:25:20;15.20;;;6.00;;
76727;SDS011;65652;53.132;18.026;2024-03-17T14:27:51;6.50;;;1.80;;
76727;SDS011;65652;53.132;18.026;2024-03-17T14:30:18;4.20;;;0.70;;
76727;SDS011;65652;53.132;18.026;2024-03-17T14:32:46;3.10;;;0.60;;
76727;SDS011;65652;53.132;18.026;2024-03-17T14:35:15;5.10;;;1.40;;
76727;SDS011;65652;53.132;18.026;2024-03-17T14:37:43;2.00;;;0.50;;
76727;SDS011;65652;53.132;18.026;2024-03-17T14:40:14;2.10;;;0.50;;
76727;SDS011;65652;53.132;18.026;2024-03-17T14:42:52;2.40;;;0.50;;
76727;SDS011;65652;53.132;18.026;2024-03-17T14:45:19;2.00;;;0.60;;
76727;SDS011;65652;53.132;18.026;2024-03-17T14:50:14;1.50;;;0.30;;
76727;SDS011;65652;53.132;18.026;2024-03-17T14:52:45;3.40;;;0.50;;
76727;SDS011;65652;53.132;18.026;2024-03-17T14:55:13;2.40;;;0.60;;
76727;SDS011;65652;53.132;18.026;2024-03-17T14:57:40;2.20;;;0.50;;
76727;SDS011;65652;53.132;18.026;2024-03-17T15:00:08;2.60;;;0.40;;
76727;SDS011;65652;53.132;18.026;2024-03-17T15:02:46;2.00;;;0.40;;
76727;SDS011;65652;53.132;18.026;2024-03-17T15:05:13;2.70;;;0.60;;
76727;SDS011;65652;53.132;18.026;2024-03-17T15:07:41;3.50;;;0.90;;
76727;SDS011;65652;53.132;18.026;2024-03-17T15:10:09;2.60;;;0.70;;
76727;SDS011;65652;53.132;18.026;2024-03-17T15:12:35;2.50;;;0.70;;
76727;SDS011;65652;53.132;18.026;2024-03-17T15:15:02;2.20;;;0.40;;
76727;SDS011;65652;53.132;18.026;2024-03-17T15:17:29;2.80;;;0.70;;
76727;SDS011;65652;53.132;18.026;2024-03-17T15:19:56;6.00;;;1.70;;
76727;SDS011;65652;53.132;18.026;2024-03-17T15:22:23;8.50;;;3.50;;
76727;SDS011;65652;53.132;18.026;2024-03-17T15:24:50;3.20;;;0.70;;
76727;SDS011;65652;53.132;18.026;2024-03-17T15:27:17;2.30;;;0.50;;
76727;SDS011;65652;53.132;18.026;2024-03-17T15:29:44;2.40;;;0.40;;
76727;SDS011;65652;53.132;18.026;2024-03-17T15:32:11;2.00;;;0.50;;
76727;SDS011;65652;53.132;18.026;2024-03-17T15:34:39;2.80;;;0.40;;
76727;SDS011;65652;53.132;18.026;2024-03-17T15:37:06;1.60;;;0.30;;
76727;SDS011;65652;53.132;18.026;2024-03-17T15:39:34;2.70;;;0.40;;
76727;SDS011;65652;53.132;18.026;2024-03-17T15:42:02;2.40;;;0.50;;
76727;SDS011;65652;53.132;18.026;2024-03-17T15:44:28;2.90;;;0.40;;
76727;SDS011;65652;53.132;18.026;2024-03-17T15:46:55;1.60;;;0.30;;
76727;SDS011;65652;53.132;18.026;2024-03-17T15:49:22;1.70;;;0.30;;
76727;SDS011;65652;53.132;18.026;2024-03-17T15:51:49;1.50;;;0.40;;